sensor_id;sensor_type;location;lat;lon;timestamp;P1;durP1;ratioP1;P2;durP2;ratioP2
22967;SDS011;11650;48.106;-1.696;2023-09-07T00:00:09;32.40;;;8.13;;
22967;SDS011;11650;48.106;-1.696;2023-09-07T00:02:35;30.33;;;7.47;;
22967;SDS011;11650;48.106;-1.696;2023-09-07T00:05:01;28.30;;;7.30;;
22967;SDS011;11650;48.106;-1.696;2023-09-07T00:07:27;40.90;;;8.23;;
22967;SDS011;11650;48.106;-1.696;2023-09-07T00:09:53;32.55;;;8.18;;
22967;SDS011;11650;48.106;-1.696;2023-09-07T00:12:18;26.27;;;7.60;;
22967;SDS011;11650;48.106;-1.696;2023-09-07T00:14:44;27.80;;;7.70;;
22967;SDS011;11650;48.106;-1.696;2023-09-07T00:17:11;29.42;;;8.30;;
22967;SDS011;11650;48.106;-1.696;2023-09-07T00:19:37;29.02;;;7.63;;
22967;SDS011;11650;48.106;-1.696;2023-09-07T00:22:03;32.42;;;8.52;;
22967;SDS011;11650;48.106;-1.696;2023-09-07T00:24:29;36.95;;;8.00;;
22967;SDS011;11650;48.106;-1.696;2023-09-07T00:26:56;28.45;;;8.15;;
22967;SDS011;11650;48.106;-1.696;2023-09-07T00:29:22;32.77;;;7.90;;
22967;SDS011;11650;48.106;-1.696;2023-09-07T00:31:48;29.15;;;8.23;;
22967;SDS011;11650;48.106;-1.696;2023-09-07T00:34:14;27.20;;;7.95;;
22967;SDS011;11650;48.106;-1.696;2023-09-07T00:36:39;30.10;;;7.90;;
22967;SDS011;11650;48.106;-1.696;2023-09-07T00:39:05;35.30;;;8.70;;
22967;SDS011;11650;48.106;-1.696;2023-09-07T00:41:31;35.28;;;8.38;;
22967;SDS011;11650;48.106;-1.696;2023-09-07T00:43:56;30.40;;;7.40;;
22967;SDS011;11650;48.106;-1.696;2023-09-07T00:46:22;34.90;;;8.40;;
22967;SDS011;11650;48.106;-1.696;2023-09-07T00:48:48;27.30;;;7.47;;
22967;SDS011;11650;48.106;-1.696;2023-09-07T00:51:14;29.90;;;8.13;;
22967;SDS011;11650;48.106;-1.696;2023-09-07T00:53:40;29.05;;;7.47;;
22967;SDS011;11650;48.106;-1.696;2023-09-07T00:56:07;29.85;;;7.93;;
22967;SDS011;11650;48.106;-1.696;2023-09-07T00:58:32;31.52;;;7.70;;
22967;SDS011;11650;48.106;-1.696;2023-09-07T01:00:59;34.17;;;7.82;;
22967;SDS011;11650;48.106;-1.696;2023-09-07T01:03:24;24.23;;;7.78;;
22967;SDS011;11650;48.106;-1.696;2023-09-07T01:05:51;31.37;;;8.27;;
22967;SDS011;11650;48.106;-1.696;2023-09-07T01:08:26;37.07;;;8.43;;
22967;SDS011;11650;48.106;-1.696;2023-09-07T01:10:55;24.93;;;8.13;;
22967;SDS011;11650;48.106;-1.696;2023-09-07T01:13:21;35.43;;;8.57;;
22967;SDS011;11650;48.106;-1.696;2023-09-07T01:15:47;28.83;;;7.80;;
22967;SDS011;11650;48.106;-1.696;2023-09-07T01:18:13;30.90;;;8.17;;
22967;SDS011;11650;48.106;-1.696;2023-09-07T01:20:40;23.58;;;7.53;;
22967;SDS011;11650;48.106;-1.696;2023-09-07T01:23:07;34.43;;;8.70;;
22967;SDS011;11650;48.106;-1.696;2023-09-07T01:25:34;29.77;;;8.10;;
22967;SDS011;11650;48.106;-1.696;2023-09-07T01:28:00;34.83;;;8.57;;
22967;SDS011;11650;48.106;-1.696;2023-09-07T01:30:29;35.63;;;8.53;;
22967;SDS011;11650;48.106;-1.696;2023-09-07T01:32:54;32.53;;;8.30;;
22967;SDS011;11650;48.106;-1.696;2023-09-07T01:35:20;28.30;;;7.93;;
22967;SDS011;11650;48.106;-1.696;2023-09-07T01:37:47;28.48;;;8.10;;
22967;SDS011;11650;48.106;-1.696;2023-09-07T01:40:13;33.20;;;8.60;;
22967;SDS011;11650;48.106;-1.696;2023-09-07T01:42:39;31.80;;;8.00;;
22967;SDS011;11650;48.106;-1.696;2023-09-07T01:45:05;40.07;;;8.47;;
22967;SDS011;11650;48.106;-1.696;2023-09-07T01:47:31;36.08;;;8.73;;
22967;SDS011;11650;48.106;-1.696;2023-09-07T01:49:56;34.17;;;8.27;;
22967;SDS011;11650;48.106;-1.696;2023-09-07T01:52:22;33.07;;;8.10;;
22967;SDS011;11650;48.106;-1.696;2023-09-07T01:54:47;26.07;;;8.63;;
22967;SDS011;11650;48.106;-1.696;2023-09-07T01:57:13;37.20;;;9.87;;
22967;SDS011;11650;48.106;-1.696;2023-09-07T01:59:39;35.47;;;9.07;;
22967;SDS011;11650;48.106;-1.696;2023-09-07T02:02:04;36.27;;;8.93;;
22967;SDS011;11650;48.106;-1.696;2023-09-07T02:04:30;30.03;;;8.00;;
22967;SDS011;11650;48.106;-1.696;2023-09-07T02:06:56;32.37;;;9.00;;
22967;SDS011;11650;48.106;-1.696;2023-09-07T02:09:21;29.83;;;8.77;;
22967;SDS011;11650;48.106;-1.696;2023-09-07T02:11:47;29.50;;;8.63;;
22967;SDS011;11650;48.106;-1.696;2023-09-07T02:14:12;33.97;;;8.20;;
22967;SDS011;11650;48.106;-1.696;2023-09-07T02:16:38;36.33;;;9.07;;
22967;SDS011;11650;48.106;-1.696;2023-09-07T02:19:04;29.43;;;8.70;;
22967;SDS011;11650;48.106;-1.696;2023-09-07T02:21:31;29.57;;;8.43;;
22967;SDS011;11650;48.106;-1.696;2023-09-07T02:23:57;37.80;;;9.40;;
22967;SDS011;11650;48.106;-1.696;2023-09-07T02:26:23;32.83;;;8.13;;
22967;SDS011;11650;48.106;-1.696;2023-09-07T02:28:49;35.47;;;8.87;;
22967;SDS011;11650;48.106;-1.696;2023-09-07T02:31:15;32.00;;;8.30;;
22967;SDS011;11650;48.106;-1.696;2023-09-07T02:33:40;30.77;;;8.00;;
22967;SDS011;11650;48.106;-1.696;2023-09-07T02:36:06;31.03;;;8.97;;
22967;SDS011;11650;48.106;-1.696;2023-09-07T02:38:31;38.97;;;9.20;;
22967;SDS011;11650;48.106;-1.696;2023-09-07T02:40:57;31.27;;;7.67;;
22967;SDS011;11650;48.106;-1.696;2023-09-07T02:43:23;29.13;;;8.40;;
22967;SDS011;11650;48.106;-1.696;2023-09-07T02:45:49;30.57;;;8.07;;
22967;SDS011;11650;48.106;-1.696;2023-09-07T02:48:15;30.20;;;8.80;;
22967;SDS011;11650;48.106;-1.696;2023-09-07T02:50:41;30.13;;;8.10;;
22967;SDS011;11650;48.106;-1.696;2023-09-07T02:53:07;30.20;;;8.27;;
22967;SDS011;11650;48.106;-1.696;2023-09-07T02:55:33;32.50;;;8.83;;
22967;SDS011;11650;48.106;-1.696;2023-09-07T02:58:02;33.33;;;8.37;;
22967;SDS011;11650;48.106;-1.696;2023-09-07T03:00:28;42.20;;;8.80;;
22967;SDS011;11650;48.106;-1.696;2023-09-07T03:02:54;38.10;;;9.00;;
22967;SDS011;11650;48.106;-1.696;2023-09-07T03:05:19;30.50;;;8.23;;
22967;SDS011;11650;48.106;-1.696;2023-09-07T03:07:46;23.87;;;7.77;;
22967;SDS011;11650;48.106;-1.696;2023-09-07T03:10:12;34.13;;;8.33;;
22967;SDS011;11650;48.106;-1.696;2023-09-07T04:08:33;31.90;;;9.30;;
22967;SDS011;11650;48.106;-1.696;2023-09-07T04:11:02;29.73;;;8.93;;
22967;SDS011;11650;48.106;-1.696;2023-09-07T04:13:29;33.17;;;9.07;;
22967;SDS011;11650;48.106;-1.696;2023-09-07T04:15:54;31.13;;;9.23;;
22967;SDS011;11650;48.106;-1.696;2023-09-07T04:18:20;29.27;;;8.97;;
22967;SDS011;11650;48.106;-1.696;2023-09-07T04:20:46;31.77;;;9.33;;
22967;SDS011;11650;48.106;-1.696;2023-09-07T04:23:11;26.37;;;8.43;;
22967;SDS011;11650;48.106;-1.696;2023-09-07T04:25:37;31.50;;;9.00;;
22967;SDS011;11650;48.106;-1.696;2023-09-07T04:28:04;27.93;;;8.60;;
22967;SDS011;11650;48.106;-1.696;2023-09-07T04:30:30;31.43;;;9.17;;
22967;SDS011;11650;48.106;-1.696;2023-09-07T04:32:56;28.80;;;8.30;;
22967;SDS011;11650;48.106;-1.696;2023-09-07T04:35:27;32.77;;;9.33;;
22967;SDS011;11650;48.106;-1.696;2023-09-07T04:37:54;31.33;;;8.93;;
22967;SDS011;11650;48.106;-1.696;2023-09-07T04:40:20;34.63;;;9.17;;
22967;SDS011;11650;48.106;-1.696;2023-09-07T04:42:46;33.80;;;9.43;;
22967;SDS011;11650;48.106;-1.696;2023-09-07T04:45:12;27.97;;;9.57;;
22967;SDS011;11650;48.106;-1.696;2023-09-07T04:47:37;25.60;;;9.70;;
22967;SDS011;11650;48.106;-1.696;2023-09-07T04:50:03;32.57;;;9.67;;
22967;SDS011;11650;48.106;-1.696;2023-09-07T04:52:29;36.97;;;9.90;;
22967;SDS011;11650;48.106;-1.696;2023-09-07T04:54:55;33.20;;;9.60;;
22967;SDS011;11650;48.106;-1.696;2023-09-07T04:57:21;31.17;;;8.90;;
22967;SDS011;11650;48.106;-1.696;2023-09-07T04:59:46;32.67;;;9.83;;
22967;SDS011;11650;48.106;-1.696;2023-09-07T05:02:12;33.13;;;9.27;;
22967;SDS011;11650;48.106;-1.696;2023-09-07T05:04:38;34.30;;;9.70;;
22967;SDS011;11650;48.106;-1.696;2023-09-07T05:07:03;27.30;;;9.07;;
22967;SDS011;11650;48.106;-1.696;2023-09-07T05:09:29;32.23;;;9.40;;
22967;SDS011;11650;48.106;-1.696;2023-09-07T05:11:56;34.17;;;10.27;;
22967;SDS011;11650;48.106;-1.696;2023-09-07T05:14:23;26.60;;;9.23;;
22967;SDS011;11650;48.106;-1.696;2023-09-07T05:16:49;26.27;;;9.40;;
22967;SDS011;11650;48.106;-1.696;2023-09-07T05:19:15;34.67;;;10.20;;
22967;SDS011;11650;48.106;-1.696;2023-09-07T05:21:40;31.20;;;9.80;;
22967;SDS011;11650;48.106;-1.696;2023-09-07T05:24:06;34.20;;;10.60;;
22967;SDS011;11650;48.106;-1.696;2023-09-07T05:26:32;29.77;;;10.43;;
22967;SDS011;11650;48.106;-1.696;2023-09-07T05:28:57;31.40;;;9.90;;
22967;SDS011;11650;48.106;-1.696;2023-09-07T05:31:23;26.30;;;9.70;;
22967;SDS011;11650;48.106;-1.696;2023-09-07T05:33:49;29.13;;;9.50;;
22967;SDS011;11650;48.106;-1.696;2023-09-07T05:36:16;34.27;;;9.57;;
22967;SDS011;11650;48.106;-1.696;2023-09-07T05:38:42;25.00;;;9.63;;
22967;SDS011;11650;48.106;-1.696;2023-09-07T05:41:08;34.77;;;10.70;;
22967;SDS011;11650;48.106;-1.696;2023-09-07T05:43:33;26.23;;;9.90;;
22967;SDS011;11650;48.106;-1.696;2023-09-07T05:45:59;29.30;;;10.17;;
22967;SDS011;11650;48.106;-1.696;2023-09-07T05:48:24;31.17;;;10.03;;
22967;SDS011;11650;48.106;-1.696;2023-09-07T05:50:50;32.70;;;10.07;;
22967;SDS011;11650;48.106;-1.696;2023-09-07T05:53:19;29.60;;;9.97;;
22967;SDS011;11650;48.106;-1.696;2023-09-07T05:55:45;26.87;;;9.60;;
22967;SDS011;11650;48.106;-1.696;2023-09-07T05:58:12;31.70;;;9.67;;
22967;SDS011;11650;48.106;-1.696;2023-09-07T06:00:38;33.00;;;10.40;;
22967;SDS011;11650;48.106;-1.696;2023-09-07T06:03:05;29.37;;;10.17;;
22967;SDS011;11650;48.106;-1.696;2023-09-07T06:05:31;31.80;;;10.07;;
22967;SDS011;11650;48.106;-1.696;2023-09-07T06:07:58;30.70;;;9.80;;
22967;SDS011;11650;48.106;-1.696;2023-09-07T06:10:24;37.77;;;8.63;;
22967;SDS011;11650;48.106;-1.696;2023-09-07T06:12:50;32.80;;;9.50;;
22967;SDS011;11650;48.106;-1.696;2023-09-07T06:15:16;30.43;;;10.23;;
22967;SDS011;11650;48.106;-1.696;2023-09-07T06:17:41;29.70;;;9.50;;
22967;SDS011;11650;48.106;-1.696;2023-09-07T06:20:07;34.20;;;9.70;;
22967;SDS011;11650;48.106;-1.696;2023-09-07T06:22:34;33.70;;;9.20;;
22967;SDS011;11650;48.106;-1.696;2023-09-07T06:24:59;32.20;;;8.77;;
22967;SDS011;11650;48.106;-1.696;2023-09-07T06:27:25;30.23;;;8.77;;
22967;SDS011;11650;48.106;-1.696;2023-09-07T06:29:50;24.73;;;8.60;;
22967;SDS011;11650;48.106;-1.696;2023-09-07T06:32:17;25.13;;;9.10;;
22967;SDS011;11650;48.106;-1.696;2023-09-07T06:34:43;23.13;;;8.87;;
22967;SDS011;11650;48.106;-1.696;2023-09-07T06:37:09;23.73;;;8.63;;
22967;SDS011;11650;48.106;-1.696;2023-09-07T06:39:35;28.30;;;9.10;;
22967;SDS011;11650;48.106;-1.696;2023-09-07T06:42:01;27.13;;;9.30;;
22967;SDS011;11650;48.106;-1.696;2023-09-07T06:44:28;27.60;;;9.57;;
22967;SDS011;11650;48.106;-1.696;2023-09-07T06:46:54;28.27;;;10.10;;
22967;SDS011;11650;48.106;-1.696;2023-09-07T06:49:21;25.90;;;9.23;;
22967;SDS011;11650;48.106;-1.696;2023-09-07T06:51:46;24.27;;;8.97;;
22967;SDS011;11650;48.106;-1.696;2023-09-07T06:54:12;26.17;;;8.93;;
22967;SDS011;11650;48.106;-1.696;2023-09-07T06:56:38;27.63;;;9.13;;
22967;SDS011;11650;48.106;-1.696;2023-09-07T06:59:03;18.10;;;8.13;;
22967;SDS011;11650;48.106;-1.696;2023-09-07T07:01:29;29.73;;;8.97;;
22967;SDS011;11650;48.106;-1.696;2023-09-07T07:03:55;33.77;;;8.77;;
22967;SDS011;11650;48.106;-1.696;2023-09-07T07:06:22;27.17;;;8.83;;
22967;SDS011;11650;48.106;-1.696;2023-09-07T07:08:47;39.63;;;8.90;;
22967;SDS011;11650;48.106;-1.696;2023-09-07T07:11:13;29.87;;;8.30;;
22967;SDS011;11650;48.106;-1.696;2023-09-07T07:13:39;26.60;;;8.60;;
22967;SDS011;11650;48.106;-1.696;2023-09-07T07:16:04;19.87;;;7.93;;
22967;SDS011;11650;48.106;-1.696;2023-09-07T07:18:31;21.43;;;8.00;;
22967;SDS011;11650;48.106;-1.696;2023-09-07T07:20:56;24.70;;;8.70;;
22967;SDS011;11650;48.106;-1.696;2023-09-07T07:23:22;24.47;;;8.03;;
22967;SDS011;11650;48.106;-1.696;2023-09-07T07:25:48;26.40;;;8.70;;
22967;SDS011;11650;48.106;-1.696;2023-09-07T07:28:13;25.43;;;8.00;;
22967;SDS011;11650;48.106;-1.696;2023-09-07T07:30:39;26.30;;;7.83;;
22967;SDS011;11650;48.106;-1.696;2023-09-07T07:33:05;23.07;;;7.73;;
22967;SDS011;11650;48.106;-1.696;2023-09-07T07:35:32;24.80;;;7.50;;
22967;SDS011;11650;48.106;-1.696;2023-09-07T07:38:02;33.80;;;7.32;;
22967;SDS011;11650;48.106;-1.696;2023-09-07T07:40:29;21.30;;;7.10;;
22967;SDS011;11650;48.106;-1.696;2023-09-07T07:42:55;22.73;;;7.37;;
22967;SDS011;11650;48.106;-1.696;2023-09-07T07:45:20;18.23;;;6.90;;
22967;SDS011;11650;48.106;-1.696;2023-09-07T07:47:48;24.20;;;7.10;;
22967;SDS011;11650;48.106;-1.696;2023-09-07T07:50:14;19.95;;;7.15;;
22967;SDS011;11650;48.106;-1.696;2023-09-07T07:52:41;20.83;;;6.72;;
22967;SDS011;11650;48.106;-1.696;2023-09-07T07:55:07;20.27;;;6.70;;
22967;SDS011;11650;48.106;-1.696;2023-09-07T07:57:33;22.48;;;7.22;;
22967;SDS011;11650;48.106;-1.696;2023-09-07T07:59:59;17.30;;;6.28;;
22967;SDS011;11650;48.106;-1.696;2023-09-07T08:02:24;20.20;;;6.72;;
22967;SDS011;11650;48.106;-1.696;2023-09-07T08:04:50;16.90;;;7.20;;
22967;SDS011;11650;48.106;-1.696;2023-09-07T08:07:16;24.40;;;7.07;;
22967;SDS011;11650;48.106;-1.696;2023-09-07T08:09:42;18.35;;;6.63;;
22967;SDS011;11650;48.106;-1.696;2023-09-07T08:12:07;27.40;;;6.57;;
22967;SDS011;11650;48.106;-1.696;2023-09-07T08:14:33;24.95;;;7.20;;
22967;SDS011;11650;48.106;-1.696;2023-09-07T08:16:59;22.45;;;7.28;;
22967;SDS011;11650;48.106;-1.696;2023-09-07T08:19:26;19.73;;;6.32;;
22967;SDS011;11650;48.106;-1.696;2023-09-07T08:21:53;22.55;;;6.70;;
22967;SDS011;11650;48.106;-1.696;2023-09-07T08:24:18;20.85;;;6.88;;
22967;SDS011;11650;48.106;-1.696;2023-09-07T08:26:44;20.23;;;6.70;;
22967;SDS011;11650;48.106;-1.696;2023-09-07T08:29:10;24.98;;;7.50;;
22967;SDS011;11650;48.106;-1.696;2023-09-07T08:31:36;24.38;;;7.32;;
22967;SDS011;11650;48.106;-1.696;2023-09-07T08:34:04;20.58;;;7.75;;
22967;SDS011;11650;48.106;-1.696;2023-09-07T08:36:31;20.67;;;7.05;;
22967;SDS011;11650;48.106;-1.696;2023-09-07T08:39:02;17.23;;;6.90;;
22967;SDS011;11650;48.106;-1.696;2023-09-07T08:41:39;20.50;;;7.25;;
22967;SDS011;11650;48.106;-1.696;2023-09-07T08:44:15;21.65;;;6.70;;
22967;SDS011;11650;48.106;-1.696;2023-09-07T08:46:42;20.98;;;6.72;;
22967;SDS011;11650;48.106;-1.696;2023-09-07T08:49:08;22.83;;;7.03;;
22967;SDS011;11650;48.106;-1.696;2023-09-07T08:51:37;18.52;;;7.18;;
22967;SDS011;11650;48.106;-1.696;2023-09-07T08:54:04;22.40;;;6.75;;
22967;SDS011;11650;48.106;-1.696;2023-09-07T08:56:30;21.02;;;7.07;;
22967;SDS011;11650;48.106;-1.696;2023-09-07T08:58:56;26.80;;;7.05;;
22967;SDS011;11650;48.106;-1.696;2023-09-07T09:01:22;23.85;;;7.38;;
22967;SDS011;11650;48.106;-1.696;2023-09-07T09:03:51;18.42;;;7.53;;
22967;SDS011;11650;48.106;-1.696;2023-09-07T09:06:18;21.38;;;7.57;;
22967;SDS011;11650;48.106;-1.696;2023-09-07T09:08:48;19.05;;;6.68;;
22967;SDS011;11650;48.106;-1.696;2023-09-07T09:11:21;20.13;;;6.75;;
22967;SDS011;11650;48.106;-1.696;2023-09-07T09:13:48;17.95;;;6.95;;
22967;SDS011;11650;48.106;-1.696;2023-09-07T09:16:15;19.60;;;7.55;;
22967;SDS011;11650;48.106;-1.696;2023-09-07T09:18:51;16.55;;;6.32;;
22967;SDS011;11650;48.106;-1.696;2023-09-07T09:21:22;20.05;;;7.15;;
22967;SDS011;11650;48.106;-1.696;2023-09-07T09:23:50;16.83;;;6.32;;
22967;SDS011;11650;48.106;-1.696;2023-09-07T09:26:17;17.30;;;6.55;;
22967;SDS011;11650;48.106;-1.696;2023-09-07T09:28:43;20.02;;;6.40;;
22967;SDS011;11650;48.106;-1.696;2023-09-07T09:31:12;17.52;;;5.68;;
22967;SDS011;11650;48.106;-1.696;2023-09-07T09:33:39;13.88;;;5.53;;
22967;SDS011;11650;48.106;-1.696;2023-09-07T09:36:06;15.60;;;6.32;;
22967;SDS011;11650;48.106;-1.696;2023-09-07T09:38:32;14.95;;;5.25;;
22967;SDS011;11650;48.106;-1.696;2023-09-07T09:40:58;17.23;;;6.75;;
22967;SDS011;11650;48.106;-1.696;2023-09-07T09:43:27;19.27;;;5.43;;
22967;SDS011;11650;48.106;-1.696;2023-09-07T09:45:53;17.58;;;6.10;;
22967;SDS011;11650;48.106;-1.696;2023-09-07T09:48:19;15.95;;;5.95;;
22967;SDS011;11650;48.106;-1.696;2023-09-07T09:50:49;24.60;;;6.07;;
22967;SDS011;11650;48.106;-1.696;2023-09-07T09:53:16;22.65;;;6.35;;
22967;SDS011;11650;48.106;-1.696;2023-09-07T09:55:45;17.73;;;5.78;;
22967;SDS011;11650;48.106;-1.696;2023-09-07T09:58:12;15.68;;;5.57;;
22967;SDS011;11650;48.106;-1.696;2023-09-07T10:00:39;17.13;;;5.15;;
22967;SDS011;11650;48.106;-1.696;2023-09-07T10:03:32;16.50;;;5.35;;
22967;SDS011;11650;48.106;-1.696;2023-09-07T10:06:09;16.77;;;5.60;;
22967;SDS011;11650;48.106;-1.696;2023-09-07T10:09:04;20.17;;;5.15;;
22967;SDS011;11650;48.106;-1.696;2023-09-07T10:11:36;15.48;;;4.55;;
22967;SDS011;11650;48.106;-1.696;2023-09-07T10:14:03;16.40;;;5.20;;
22967;SDS011;11650;48.106;-1.696;2023-09-07T10:16:45;17.10;;;5.10;;
22967;SDS011;11650;48.106;-1.696;2023-09-07T10:21:48;18.48;;;5.25;;
22967;SDS011;11650;48.106;-1.696;2023-09-07T10:24:27;11.73;;;4.95;;
22967;SDS011;11650;48.106;-1.696;2023-09-07T10:27:01;18.40;;;5.72;;
22967;SDS011;11650;48.106;-1.696;2023-09-07T10:29:27;15.80;;;5.18;;
22967;SDS011;11650;48.106;-1.696;2023-09-07T10:31:54;17.58;;;4.97;;
22967;SDS011;11650;48.106;-1.696;2023-09-07T10:34:20;18.88;;;4.45;;
22967;SDS011;11650;48.106;-1.696;2023-09-07T10:36:47;16.20;;;4.70;;
22967;SDS011;11650;48.106;-1.696;2023-09-07T10:39:16;16.70;;;5.57;;
22967;SDS011;11650;48.106;-1.696;2023-09-07T10:41:42;16.42;;;5.10;;
22967;SDS011;11650;48.106;-1.696;2023-09-07T10:44:08;23.10;;;4.72;;
22967;SDS011;11650;48.106;-1.696;2023-09-07T10:46:38;17.15;;;4.95;;
22967;SDS011;11650;48.106;-1.696;2023-09-07T10:49:06;16.58;;;5.03;;
22967;SDS011;11650;48.106;-1.696;2023-09-07T10:51:46;13.85;;;5.07;;
22967;SDS011;11650;48.106;-1.696;2023-09-07T10:54:21;16.33;;;4.60;;
22967;SDS011;11650;48.106;-1.696;2023-09-07T10:56:48;19.63;;;5.70;;
22967;SDS011;11650;48.106;-1.696;2023-09-07T10:59:15;25.45;;;5.50;;
22967;SDS011;11650;48.106;-1.696;2023-09-07T11:01:43;18.20;;;5.78;;
22967;SDS011;11650;48.106;-1.696;2023-09-07T11:04:09;18.25;;;5.25;;
22967;SDS011;11650;48.106;-1.696;2023-09-07T11:06:38;18.13;;;5.25;;
22967;SDS011;11650;48.106;-1.696;2023-09-07T11:09:05;24.52;;;5.35;;
22967;SDS011;11650;48.106;-1.696;2023-09-07T11:11:34;19.85;;;5.10;;
22967;SDS011;11650;48.106;-1.696;2023-09-07T11:14:01;25.85;;;5.57;;
22967;SDS011;11650;48.106;-1.696;2023-09-07T11:16:28;22.13;;;5.30;;
22967;SDS011;11650;48.106;-1.696;2023-09-07T11:18:54;17.38;;;5.32;;
22967;SDS011;11650;48.106;-1.696;2023-09-07T11:21:20;20.83;;;5.25;;
22967;SDS011;11650;48.106;-1.696;2023-09-07T11:23:46;21.67;;;5.55;;
22967;SDS011;11650;48.106;-1.696;2023-09-07T11:26:11;24.92;;;5.38;;
22967;SDS011;11650;48.106;-1.696;2023-09-07T11:28:38;20.80;;;5.40;;
22967;SDS011;11650;48.106;-1.696;2023-09-07T11:31:04;20.95;;;5.90;;
22967;SDS011;11650;48.106;-1.696;2023-09-07T11:33:33;21.25;;;5.43;;
22967;SDS011;11650;48.106;-1.696;2023-09-07T11:35:59;22.08;;;5.28;;
22967;SDS011;11650;48.106;-1.696;2023-09-07T11:38:28;18.95;;;5.07;;
22967;SDS011;11650;48.106;-1.696;2023-09-07T11:40:59;19.45;;;4.60;;
22967;SDS011;11650;48.106;-1.696;2023-09-07T11:43:25;21.65;;;5.60;;
22967;SDS011;11650;48.106;-1.696;2023-09-07T11:45:51;22.95;;;5.20;;
22967;SDS011;11650;48.106;-1.696;2023-09-07T11:48:16;26.13;;;5.30;;
22967;SDS011;11650;48.106;-1.696;2023-09-07T11:50:43;24.27;;;5.18;;
22967;SDS011;11650;48.106;-1.696;2023-09-07T11:53:08;21.33;;;5.18;;
22967;SDS011;11650;48.106;-1.696;2023-09-07T11:55:34;19.20;;;5.43;;
22967;SDS011;11650;48.106;-1.696;2023-09-07T11:58:00;21.08;;;5.00;;
22967;SDS011;11650;48.106;-1.696;2023-09-07T12:00:27;25.73;;;5.80;;
22967;SDS011;11650;48.106;-1.696;2023-09-07T12:02:53;26.27;;;5.32;;
22967;SDS011;11650;48.106;-1.696;2023-09-07T12:05:18;21.48;;;5.72;;
22967;SDS011;11650;48.106;-1.696;2023-09-07T12:07:44;15.88;;;4.63;;
22967;SDS011;11650;48.106;-1.696;2023-09-07T12:10:10;20.92;;;5.75;;
22967;SDS011;11650;48.106;-1.696;2023-09-07T12:12:40;20.58;;;5.20;;
22967;SDS011;11650;48.106;-1.696;2023-09-07T12:15:06;27.00;;;5.55;;
22967;SDS011;11650;48.106;-1.696;2023-09-07T12:17:32;28.33;;;5.80;;
22967;SDS011;11650;48.106;-1.696;2023-09-07T12:19:59;26.02;;;4.95;;
22967;SDS011;11650;48.106;-1.696;2023-09-07T12:22:25;22.45;;;5.43;;
22967;SDS011;11650;48.106;-1.696;2023-09-07T12:24:51;24.73;;;5.38;;
22967;SDS011;11650;48.106;-1.696;2023-09-07T12:27:17;24.30;;;4.93;;
22967;SDS011;11650;48.106;-1.696;2023-09-07T12:29:43;24.98;;;5.22;;
22967;SDS011;11650;48.106;-1.696;2023-09-07T12:32:09;26.90;;;5.30;;
22967;SDS011;11650;48.106;-1.696;2023-09-07T12:34:34;23.02;;;5.88;;
22967;SDS011;11650;48.106;-1.696;2023-09-07T12:37:00;22.02;;;5.15;;
22967;SDS011;11650;48.106;-1.696;2023-09-07T12:39:28;29.15;;;5.60;;
22967;SDS011;11650;48.106;-1.696;2023-09-07T12:41:54;26.90;;;5.65;;
22967;SDS011;11650;48.106;-1.696;2023-09-07T12:44:20;25.80;;;5.05;;
22967;SDS011;11650;48.106;-1.696;2023-09-07T12:46:46;19.52;;;4.75;;
22967;SDS011;11650;48.106;-1.696;2023-09-07T12:49:11;23.05;;;4.60;;
22967;SDS011;11650;48.106;-1.696;2023-09-07T12:51:40;19.15;;;5.32;;
22967;SDS011;11650;48.106;-1.696;2023-09-07T12:54:06;18.92;;;4.47;;
22967;SDS011;11650;48.106;-1.696;2023-09-07T12:56:31;22.85;;;5.03;;
22967;SDS011;11650;48.106;-1.696;2023-09-07T12:58:57;23.63;;;4.88;;
22967;SDS011;11650;48.106;-1.696;2023-09-07T13:01:24;21.02;;;5.20;;
22967;SDS011;11650;48.106;-1.696;2023-09-07T13:03:53;20.45;;;5.38;;
22967;SDS011;11650;48.106;-1.696;2023-09-07T13:06:18;25.98;;;4.88;;
22967;SDS011;11650;48.106;-1.696;2023-09-07T13:08:44;22.90;;;4.78;;
22967;SDS011;11650;48.106;-1.696;2023-09-07T13:11:10;22.88;;;5.28;;
22967;SDS011;11650;48.106;-1.696;2023-09-07T13:13:36;18.70;;;4.97;;
22967;SDS011;11650;48.106;-1.696;2023-09-07T13:16:03;22.83;;;4.40;;
22967;SDS011;11650;48.106;-1.696;2023-09-07T13:18:29;25.08;;;5.22;;
22967;SDS011;11650;48.106;-1.696;2023-09-07T13:20:55;30.77;;;5.10;;
22967;SDS011;11650;48.106;-1.696;2023-09-07T13:23:27;25.30;;;5.13;;
22967;SDS011;11650;48.106;-1.696;2023-09-07T13:25:56;25.05;;;5.18;;
22967;SDS011;11650;48.106;-1.696;2023-09-07T13:28:22;26.23;;;5.00;;
22967;SDS011;11650;48.106;-1.696;2023-09-07T13:30:50;25.25;;;5.45;;
22967;SDS011;11650;48.106;-1.696;2023-09-07T13:33:15;21.20;;;4.25;;
22967;SDS011;11650;48.106;-1.696;2023-09-07T13:35:41;22.83;;;4.60;;
22967;SDS011;11650;48.106;-1.696;2023-09-07T13:38:07;19.35;;;4.30;;
22967;SDS011;11650;48.106;-1.696;2023-09-07T13:40:32;22.95;;;4.82;;
22967;SDS011;11650;48.106;-1.696;2023-09-07T13:42:58;20.50;;;4.82;;
22967;SDS011;11650;48.106;-1.696;2023-09-07T13:45:24;19.05;;;4.20;;
22967;SDS011;11650;48.106;-1.696;2023-09-07T13:47:49;17.45;;;4.30;;
22967;SDS011;11650;48.106;-1.696;2023-09-07T13:50:15;18.95;;;4.63;;
22967;SDS011;11650;48.106;-1.696;2023-09-07T13:52:41;13.73;;;4.22;;
22967;SDS011;11650;48.106;-1.696;2023-09-07T13:55:07;18.55;;;4.70;;
22967;SDS011;11650;48.106;-1.696;2023-09-07T13:57:33;19.23;;;4.68;;
22967;SDS011;11650;48.106;-1.696;2023-09-07T13:59:59;20.90;;;4.80;;
22967;SDS011;11650;48.106;-1.696;2023-09-07T14:02:25;19.70;;;4.40;;
22967;SDS011;11650;48.106;-1.696;2023-09-07T14:04:51;17.33;;;3.90;;
22967;SDS011;11650;48.106;-1.696;2023-09-07T14:07:17;17.80;;;4.68;;
22967;SDS011;11650;48.106;-1.696;2023-09-07T14:09:43;15.55;;;4.72;;
22967;SDS011;11650;48.106;-1.696;2023-09-07T14:12:09;11.80;;;4.32;;
22967;SDS011;11650;48.106;-1.696;2023-09-07T14:14:34;16.20;;;4.00;;
22967;SDS011;11650;48.106;-1.696;2023-09-07T14:17:00;16.67;;;4.43;;
22967;SDS011;11650;48.106;-1.696;2023-09-07T14:19:26;18.48;;;4.03;;
22967;SDS011;11650;48.106;-1.696;2023-09-07T14:21:58;18.65;;;4.13;;
22967;SDS011;11650;48.106;-1.696;2023-09-07T14:24:24;16.35;;;4.22;;
22967;SDS011;11650;48.106;-1.696;2023-09-07T14:26:50;13.85;;;3.65;;
22967;SDS011;11650;48.106;-1.696;2023-09-07T14:29:16;19.88;;;4.82;;
22967;SDS011;11650;48.106;-1.696;2023-09-07T14:31:42;18.75;;;4.85;;
22967;SDS011;11650;48.106;-1.696;2023-09-07T14:34:08;15.52;;;4.10;;
22967;SDS011;11650;48.106;-1.696;2023-09-07T14:36:36;17.15;;;4.30;;
22967;SDS011;11650;48.106;-1.696;2023-09-07T14:39:01;20.02;;;4.50;;
22967;SDS011;11650;48.106;-1.696;2023-09-07T14:41:28;11.57;;;3.70;;
22967;SDS011;11650;48.106;-1.696;2023-09-07T14:43:55;11.50;;;3.88;;
22967;SDS011;11650;48.106;-1.696;2023-09-07T14:46:21;14.32;;;4.15;;
22967;SDS011;11650;48.106;-1.696;2023-09-07T14:48:48;13.60;;;4.10;;
22967;SDS011;11650;48.106;-1.696;2023-09-07T14:51:14;19.50;;;4.47;;
22967;SDS011;11650;48.106;-1.696;2023-09-07T14:53:40;13.13;;;3.65;;
22967;SDS011;11650;48.106;-1.696;2023-09-07T14:56:06;9.35;;;3.90;;
22967;SDS011;11650;48.106;-1.696;2023-09-07T14:58:31;16.92;;;4.05;;
22967;SDS011;11650;48.106;-1.696;2023-09-07T15:00:57;16.30;;;4.40;;
22967;SDS011;11650;48.106;-1.696;2023-09-07T15:03:23;14.73;;;4.03;;
22967;SDS011;11650;48.106;-1.696;2023-09-07T15:05:49;12.23;;;4.13;;
22967;SDS011;11650;48.106;-1.696;2023-09-07T15:08:15;14.30;;;3.90;;
22967;SDS011;11650;48.106;-1.696;2023-09-07T15:10:40;15.15;;;4.28;;
22967;SDS011;11650;48.106;-1.696;2023-09-07T15:13:07;18.73;;;4.82;;
22967;SDS011;11650;48.106;-1.696;2023-09-07T15:15:33;23.02;;;4.70;;